Time;durP1;ratioP1;P1;durP2;ratioP2;P2;SDS_P1;SDS_P2;PMS_P1;PMS_P2;Temp;Humidity;BMP_temperature;BMP_pressure;BME280_temperature;BME280_humidity;BME280_pressure;Samples;Min_cycle;Max_cycle;Signal;HPM_P1;HPM_P2
2022/06/17 00:01:21;;;;;;;1.50;0.90;;;18.20;89.00;;;;;;4998574;28;20968;-76
2022/06/17 00:03:51;;;;;;;1.50;0.90;;;18.20;90.60;;;;;;5017724;28;20495;-75
2022/06/17 00:06:19;;;;;;;1.47;0.90;;;18.10;89.80;;;;;;5011869;28;20491;-76
2022/06/17 00:08:49;;;;;;;1.50;0.93;;;18.10;89.80;;;;;;5015916;28;20493;-76
2022/06/17 00:11:20;;;;;;;1.47;0.90;;;18.10;90.70;;;;;;5009797;28;20471;-76
2022/06/17 00:13:48;;;;;;;1.47;1.00;;;18.10;90.90;;;;;;5010000;28;20460;-76
2022/06/17 00:16:17;;;;;;;1.50;1.00;;;18.00;91.30;;;;;;4999009;28;20478;-76
2022/06/17 00:18:44;;;;;;;1.47;1.00;;;18.00;90.60;;;;;;5002886;28;20476;-76
2022/06/17 00:21:17;;;;;;;1.47;0.90;;;18.00;90.70;;;;;;5008291;28;20506;-76
2022/06/17 00:23:44;;;;;;;1.47;0.90;;;18.00;90.40;;;;;;5010403;28;20500;-76
2022/06/17 00:26:11;;;;;;;1.50;1.00;;;17.90;91.10;;;;;;4997078;28;20508;-76
2022/06/17 00:28:38;;;;;;;1.50;1.00;;;17.90;90.50;;;;;;4997552;28;20500;-76
2022/06/17 00:31:06;;;;;;;1.40;0.90;;;17.80;90.40;;;;;;5009998;28;20467;-76
2022/06/17 00:33:33;;;;;;;1.43;0.97;;;17.80;90.90;;;;;;5012145;28;20456;-76
2022/06/17 00:35:59;;;;;;;1.40;0.90;;;17.80;90.80;;;;;;5007913;28;20464;-76
2022/06/17 00:38:29;;;;;;;1.50;0.90;;;17.80;90.20;;;;;;4995527;28;20503;-76
2022/06/17 00:40:59;;;;;;;1.50;0.90;;;17.70;90.40;;;;;;5011210;28;20826;-76
2022/06/17 00:43:32;;;;;;;1.47;0.90;;;17.70;90.90;;;;;;5014016;28;20484;-76
2022/06/17 00:46:12;;;;;;;1.50;1.00;;;17.70;90.40;;;;;;5003918;28;20464;-76
2022/06/17 00:48:43;;;;;;;1.47;0.90;;;17.70;91.20;;;;;;5009312;28;20495;-76
2022/06/17 00:51:16;;;;;;;1.50;0.90;;;17.70;89.60;;;;;;5010916;28;20850;-76
2022/06/17 00:53:49;;;;;;;1.50;1.00;;;17.70;90.20;;;;;;5009980;28;20486;-76
2022/06/17 00:56:19;;;;;;;1.47;0.90;;;17.70;90.10;;;;;;4999573;28;20484;-76
2022/06/17 00:59:00;;;;;;;1.50;1.00;;;17.70;90.30;;;;;;5004790;28;20859;-76
2022/06/17 01:01:33;;;;;;;1.43;1.00;;;17.70;90.70;;;;;;4997505;28;20496;-76
2022/06/17 01:04:02;;;;;;;1.47;0.97;;;17.60;91.50;;;;;;5009010;28;20849;-76
2022/06/17 01:06:51;;;;;;;1.50;1.00;;;17.60;92.20;;;;;;5016144;28;20459;-76
2022/06/17 01:12:12;;;;;;;1.47;0.90;;;17.50;91.50;;;;;;4995868;28;20487;-76
2022/06/17 01:14:41;;;;;;;1.50;0.90;;;17.50;92.60;;;;;;5013984;28;20470;-77
2022/06/17 01:17:13;;;;;;;1.47;0.90;;;17.50;91.80;;;;;;5010946;28;20464;-76
2022/06/17 01:19:43;;;;;;;1.50;0.90;;;17.50;91.20;;;;;;5009878;28;20846;-76
2022/06/17 01:22:19;;;;;;;1.47;1.00;;;17.50;92.00;;;;;;5010653;28;20463;-76
2022/06/17 01:24:49;;;;;;;1.40;0.93;;;17.50;92.30;;;;;;5009843;28;20842;-76
2022/06/17 01:27:20;;;;;;;1.43;0.90;;;17.50;91.70;;;;;;4991655;28;20492;-76
2022/06/17 01:29:47;;;;;;;1.47;1.00;;;17.50;91.90;;;;;;5024297;28;20487;-76
2022/06/17 01:32:15;;;;;;;1.50;1.00;;;17.50;91.20;;;;;;5004347;28;20987;-75
2022/06/17 01:34:42;;;;;;;1.47;0.90;;;17.40;91.70;;;;;;5013502;28;20803;-76
2022/06/17 01:37:10;;;;;;;1.47;0.90;;;17.40;92.10;;;;;;5010121;28;20464;-76
2022/06/17 01:39:40;;;;;;;1.50;0.90;;;17.40;91.30;;;;;;5025782;28;20495;-76
2022/06/17 01:42:10;;;;;;;1.47;0.90;;;17.40;91.50;;;;;;5001924;28;20928;-76
2022/06/17 01:44:39;;;;;;;1.50;1.00;;;17.40;91.30;;;;;;5013591;28;20459;-75
2022/06/17 01:47:11;;;;;;;1.43;0.90;;;17.40;91.50;;;;;;5009048;28;20470;-76
2022/06/17 01:49:43;;;;;;;1.50;1.00;;;17.40;91.90;;;;;;5021010;28;20586;-76
2022/06/17 01:52:14;;;;;;;1.43;0.90;;;17.30;92.20;;;;;;5009564;28;20464;-76
2022/06/17 01:54:46;;;;;;;1.40;0.90;;;17.30;92.10;;;;;;5014180;28;20459;-76
2022/06/17 01:57:18;;;;;;;1.43;0.90;;;17.30;91.30;;;;;;4997744;28;20490;-77
2022/06/17 01:59:51;;;;;;;1.43;0.90;;;17.30;91.80;;;;;;5005083;28;20484;-76
2022/06/17 02:02:19;;;;;;;1.50;1.00;;;17.30;91.80;;;;;;5014517;28;20530;-76
2022/06/17 02:04:53;;;;;;;1.50;0.90;;;17.30;91.40;;;;;;5008891;28;20464;-76
2022/06/17 02:07:24;;;;;;;1.47;0.90;;;17.20;91.20;;;;;;5012491;28;20456;-75
2022/06/17 02:09:51;;;;;;;1.47;0.90;;;17.20;90.90;;;;;;5027744;28;20479;-76
2022/06/17 02:12:21;;;;;;;1.43;0.93;;;17.20;91.90;;;;;;5000746;28;20483;-76
2022/06/17 02:14:49;;;;;;;1.50;0.90;;;17.20;91.80;;;;;;5015384;28;20522;-76
2022/06/17 02:17:16;;;;;;;1.50;0.90;;;17.20;90.90;;;;;;4996325;28;20486;-75
2022/06/17 02:19:46;;;;;;;1.50;1.10;;;17.20;91.20;;;;;;5008106;28;20484;-75
2022/06/17 02:22:19;;;;;;;1.47;0.90;;;17.20;91.60;;;;;;5012234;28;21055;-75
2022/06/17 02:24:50;;;;;;;1.50;0.90;;;17.20;90.60;;;;;;5022041;28;20487;-75
2022/06/17 02:27:19;;;;;;;1.40;0.90;;;17.20;90.90;;;;;;4997073;28;20484;-75
2022/06/17 02:29:47;;;;;;;1.47;1.00;;;17.20;91.30;;;;;;5019560;28;20521;-75
2022/06/17 02:32:15;;;;;;;1.50;1.00;;;17.10;91.30;;;;;;5011648;28;20833;-75
2022/06/17 02:34:47;;;;;;;1.43;1.00;;;17.10;92.00;;;;;;5009051;28;20460;-75
2022/06/17 02:37:17;;;;;;;1.43;0.90;;;17.10;91.90;;;;;;5018256;28;20459;-75
2022/06/17 02:39:49;;;;;;;1.47;0.90;;;17.00;91.70;;;;;;5022104;28;20533;-76
2022/06/17 02:42:21;;;;;;;1.50;1.00;;;17.00;92.00;;;;;;5013486;28;20464;-75
2022/06/17 02:44:50;;;;;;;1.43;0.90;;;17.00;92.50;;;;;;5014875;28;20494;-75
2022/06/17 02:47:18;;;;;;;1.40;0.90;;;16.90;92.10;;;;;;4994432;28;20484;-75
2022/06/17 02:49:46;;;;;;;1.47;1.00;;;16.90;91.90;;;;;;5023367;28;20486;-75
2022/06/17 02:52:18;;;;;;;1.43;0.90;;;16.90;93.10;;;;;;5019382;28;20499;-76
2022/06/17 02:54:50;;;;;;;1.50;1.00;;;16.90;93.00;;;;;;5027905;28;20470;-75
2022/06/17 02:57:25;;;;;;;1.47;0.90;;;16.80;93.50;;;;;;5001344;28;20476;-75
2022/06/17 02:59:57;;;;;;;1.50;0.97;;;16.80;92.80;;;;;;5024056;28;20494;-75
2022/06/17 03:02:26;;;;;;;1.43;0.90;;;16.80;93.10;;;;;;5022617;28;20470;-75
2022/06/17 03:04:54;;;;;;;1.47;0.90;;;16.80;92.90;;;;;;5027622;28;20495;-75
2022/06/17 03:07:24;;;;;;;1.50;0.97;;;16.80;94.00;;;;;;5002584;28;20491;-74
2022/06/17 03:09:50;;;;;;;1.47;1.00;;;16.70;93.30;;;;;;5014784;28;21159;-76
2022/06/17 03:12:20;;;;;;;1.47;1.00;;;16.70;93.20;;;;;;5008865;28;20460;-75
2022/06/17 03:14:52;;;;;;;1.43;1.00;;;16.70;93.40;;;;;;5007741;28;20969;-75
2022/06/17 03:17:24;;;;;;;1.47;1.00;;;16.60;94.80;;;;;;4987508;28;20487;-75
2022/06/17 03:19:53;;;;;;;1.50;1.00;;;16.60;94.80;;;;;;5008919;28;20507;-75
2022/06/17 03:22:20;;;;;;;1.50;1.00;;;16.50;94.50;;;;;;5016111;28;21003;-75
2022/06/17 03:24:53;;;;;;;1.50;1.00;;;16.50;94.80;;;;;;5013113;28;20492;-76
2022/06/17 03:27:25;;;;;;;1.47;1.00;;;16.50;94.40;;;;;;4995488;28;20487;-75
2022/06/17 03:29:56;;;;;;;1.47;1.00;;;16.40;95.40;;;;;;5023692;28;20972;-75
2022/06/17 03:32:28;;;;;;;1.43;0.90;;;16.30;95.40;;;;;;5019821;28;20466;-76
2022/06/17 03:34:56;;;;;;;1.50;1.00;;;16.30;95.70;;;;;;5031278;28;20902;-76
2022/06/17 03:37:27;;;;;;;1.97;1.87;;;16.30;94.90;;;;;;5005581;28;20479;-75
2022/06/17 03:39:59;;;;;;;1.43;0.90;;;16.30;95.00;;;;;;5027481;28;21011;-75
2022/06/17 03:42:31;;;;;;;1.50;1.00;;;16.30;95.30;;;;;;5016252;28;20468;-75
2022/06/17 03:45:04;;;;;;;1.50;1.00;;;16.30;95.70;;;;;;5013544;28;20490;-75
2022/06/17 03:47:41;;;;;;;1.47;0.90;;;16.30;95.40;;;;;;5017846;28;20820;-75
2022/06/17 03:50:16;;;;;;;1.50;1.10;;;16.30;95.50;;;;;;5024088;28;20462;-75
2022/06/17 03:52:48;;;;;;;1.47;1.00;;;16.30;96.10;;;;;;4997456;28;20499;-76
2022/06/17 03:55:18;;;;;;;1.47;0.90;;;16.30;96.30;;;;;;5018531;28;20467;-75
2022/06/17 03:57:48;;;;;;;1.50;1.00;;;16.30;96.00;;;;;;4989913;28;20491;-75
2022/06/17 04:00:22;;;;;;;2.63;1.77;;;16.30;97.00;;;;;;5019175;28;20470;-76
2022/06/17 04:02:50;;;;;;;1.50;1.10;;;16.30;97.40;;;;;;5014404;28;20470;-75
2022/06/17 04:05:20;;;;;;;1.50;1.00;;;16.30;97.40;;;;;;5011455;28;20511;-75
2022/06/17 04:07:47;;;;;;;1.50;1.00;;;16.30;97.10;;;;;;5014436;28;20542;-76
2022/06/17 04:10:18;;;;;;;1.47;1.00;;;16.40;96.50;;;;;;5030242;28;20471;-74
2022/06/17 04:12:47;;;;;;;1.47;0.90;;;16.40;96.40;;;;;;5001255;28;20480;-75
2022/06/17 04:15:30;;;;;;;1.47;1.00;;;16.50;96.30;;;;;;5013665;28;20460;-75
2022/06/17 04:17:56;;;;;;;1.50;1.00;;;16.50;96.40;;;;;;5013715;28;20851;-75
2022/06/17 04:20:35;;;;;;;1.43;0.90;;;16.50;96.60;;;;;;5017196;28;20455;-75
2022/06/17 04:23:05;;;;;;;1.50;0.90;;;16.50;96.40;;;;;;4987170;28;20491;-76
2022/06/17 04:25:37;;;;;;;1.40;0.90;;;16.60;97.00;;;;;;5010745;28;20472;-76
2022/06/17 04:28:07;;;;;;;1.50;1.00;;;16.60;96.40;;;;;;4998429;28;20488;-75
2022/06/17 04:30:42;;;;;;;1.50;1.00;;;16.70;96.70;;;;;;5018337;28;20467;-79
2022/06/17 04:33:16;;;;;;;1.50;0.90;;;16.70;97.50;;;;;;5014565;28;21202;-80
2022/06/17 04:35:43;;;;;;;1.43;0.90;;;16.70;97.40;;;;;;5013263;28;20479;-77
2022/06/17 04:38:10;;;;;;;1.47;1.00;;;16.70;97.40;;;;;;4990150;28;21189;-80
2022/06/17 04:40:41;;;;;;;1.47;1.00;;;16.80;97.70;;;;;;5047229;23;20494;-80
2022/06/17 04:43:22;;;;;;;3.50;2.90;;;16.90;97.80;;;;;;5044678;28;20638;-81
2022/06/17 04:46:01;;;;;;;1.47;0.90;;;17.00;97.40;;;;;;5044859;28;20531;-80
2022/06/17 04:48:28;;;;;;;1.50;1.00;;;17.20;96.90;;;;;;5043450;28;20455;-79
2022/06/17 04:50:56;;;;;;;1.50;1.00;;;17.40;96.60;;;;;;5028580;28;20538;-80
2022/06/17 04:53:23;;;;;;;1.47;0.93;;;17.60;95.70;;;;;;5051454;28;20839;-81
2022/06/17 04:55:51;;;;;;;1.50;0.90;;;17.90;95.40;;;;;;5057842;28;20463;-80
2022/06/17 04:58:20;;;;;;;1.50;1.00;;;18.10;94.00;;;;;;5039050;28;20741;-80
2022/06/17 05:00:50;;;;;;;1.50;0.90;;;18.20;93.70;;;;;;5034705;28;20502;-80
2022/06/17 05:03:19;;;;;;;1.47;0.90;;;18.20;93.20;;;;;;5060113;28;21080;-80
2022/06/17 05:05:47;;;;;;;1.50;0.90;;;18.30;93.00;;;;;;5047564;28;20509;-80
2022/06/17 05:08:21;;;;;;;1.50;0.90;;;18.40;92.80;;;;;;5055117;28;20470;-79
2022/06/17 05:10:58;;;;;;;1.50;0.90;;;18.50;92.20;;;;;;5048463;28;20498;-81
2022/06/17 05:13:32;;;;;;;1.50;0.90;;;18.60;91.70;;;;;;5049474;28;20823;-81
2022/06/17 05:16:03;;;;;;;1.40;0.90;;;18.70;91.80;;;;;;5041594;28;20459;-81
2022/06/17 05:18:31;;;;;;;1.47;0.90;;;18.80;91.10;;;;;;5040303;28;20989;-82
2022/06/17 05:21:01;;;;;;;1.50;1.10;;;18.90;91.10;;;;;;5034502;28;21115;-81
2022/06/17 05:23:28;;;;;;;1.43;0.90;;;19.10;90.80;;;;;;5052238;28;20548;-81
2022/06/17 05:26:03;;;;;;;1.47;0.90;;;19.40;89.50;;;;;;5039221;28;20466;-81
2022/06/17 05:28:34;;;;;;;1.47;0.90;;;19.50;88.90;;;;;;5047905;28;20463;-81
2022/06/17 05:31:04;;;;;;;1.43;0.90;;;19.60;88.30;;;;;;5030312;28;20493;-81
2022/06/17 05:33:32;;;;;;;1.50;0.90;;;19.60;88.40;;;;;;5039597;28;20553;-76
2022/06/17 05:35:59;;;;;;;1.87;1.47;;;19.70;88.10;;;;;;5050045;28;20466;-77
2022/06/17 05:38:27;;;;;;;2.73;2.53;;;19.70;87.70;;;;;;5043637;28;20492;-78
2022/06/17 05:40:53;;;;;;;1.50;1.00;;;19.70;87.80;;;;;;5027327;28;20497;-79
2022/06/17 05:43:20;;;;;;;1.50;0.90;;;19.80;87.50;;;;;;5045484;28;20470;-80
2022/06/17 05:45:47;;;;;;;1.40;0.90;;;19.90;87.20;;;;;;5036944;28;20525;-79
2022/06/17 05:48:17;;;;;;;1.40;0.90;;;20.00;86.80;;;;;;5044066;28;20461;-77
2022/06/17 05:50:45;;;;;;;1.43;0.90;;;20.00;86.70;;;;;;5036648;28;20547;-77
2022/06/17 05:53:13;;;;;;;1.40;0.90;;;20.00;86.30;;;;;;5035196;28;20463;-77
2022/06/17 05:55:40;;;;;;;1.63;1.10;;;20.00;86.40;;;;;;5033071;28;20550;-77
2022/06/17 05:58:08;;;;;;;1.50;0.90;;;20.00;86.20;;;;;;5033558;28;20536;-77
2022/06/17 06:00:35;;;;;;;1.50;1.00;;;20.00;86.40;;;;;;5039195;28;20486;-77
2022/06/17 06:03:06;;;;;;;1.50;0.90;;;20.00;86.20;;;;;;5022142;28;20510;-78
2022/06/17 06:05:34;;;;;;;1.40;0.90;;;20.10;86.10;;;;;;5031976;28;20494;-77
2022/06/17 06:08:03;;;;;;;1.47;0.90;;;20.10;86.00;;;;;;5031236;28;20494;-77
2022/06/17 06:10:30;;;;;;;1.47;0.90;;;20.10;86.00;;;;;;5040914;28;20855;-77
2022/06/17 06:13:03;;;;;;;1.47;0.90;;;20.10;86.10;;;;;;5034615;28;20487;-77
2022/06/17 06:15:33;;;;;;;1.50;0.90;;;20.10;85.90;;;;;;5033321;28;20884;-78
2022/06/17 06:18:00;;;;;;;1.43;0.90;;;20.00;86.30;;;;;;5030948;28;20459;-77
2022/06/17 06:20:27;;;;;;;1.47;0.90;;;19.90;86.50;;;;;;5032114;28;21004;-77
2022/06/17 06:22:54;;;;;;;1.50;1.10;;;19.90;86.40;;;;;;5025122;28;20528;-78
2022/06/17 06:25:23;;;;;;;1.47;0.90;;;19.90;86.90;;;;;;5031850;28;20502;-78
2022/06/17 06:27:50;;;;;;;1.40;0.90;;;19.90;86.80;;;;;;5033829;28;20492;-77
2022/06/17 06:30:21;;;;;;;1.50;0.90;;;20.00;86.90;;;;;;5032503;28;20587;-78
2022/06/17 06:32:50;;;;;;;1.47;0.90;;;20.00;86.60;;;;;;5026081;28;20893;-77
2022/06/17 06:35:17;;;;;;;1.50;0.90;;;20.10;86.60;;;;;;5032335;28;20459;-78
2022/06/17 06:37:44;;;;;;;1.50;1.03;;;20.20;86.10;;;;;;5041831;28;21035;-78
2022/06/17 06:40:12;;;;;;;1.47;0.90;;;20.30;86.20;;;;;;5034162;28;20490;-79
2022/06/17 06:42:44;;;;;;;1.43;0.90;;;20.50;85.60;;;;;;5038335;28;20485;-78
2022/06/17 06:45:16;;;;;;;1.47;0.90;;;20.80;84.90;;;;;;5044820;28;20491;-78
2022/06/17 06:47:46;;;;;;;1.50;0.90;;;21.20;84.10;;;;;;5038283;28;20568;-78
2022/06/17 06:50:23;;;;;;;1.50;0.90;;;21.60;82.40;;;;;;5035606;28;20543;-80
2022/06/17 06:52:50;;;;;;;1.50;0.90;;;21.60;81.40;;;;;;5040346;28;20528;-79
2022/06/17 06:55:18;;;;;;;1.47;0.90;;;21.70;81.40;;;;;;5031967;28;20462;-77
2022/06/17 06:57:51;;;;;;;1.47;0.90;;;21.90;81.20;;;;;;5027693;28;20480;-78
2022/06/17 07:00:21;;;;;;;1.50;0.90;;;22.20;80.60;;;;;;5034525;28;21006;-77
2022/06/17 07:02:48;;;;;;;1.50;0.90;;;22.40;79.90;;;;;;5038232;28;20564;-77
2022/06/17 07:05:15;;;;;;;1.50;0.90;;;22.60;78.90;;;;;;5049587;28;20490;-78
2022/06/17 07:07:43;;;;;;;1.50;0.90;;;22.70;78.20;;;;;;5038546;28;20556;-78
2022/06/17 07:10:13;;;;;;;1.43;0.80;;;22.80;78.20;;;;;;5034112;28;20485;-78
2022/06/17 07:12:40;;;;;;;1.43;0.90;;;23.00;77.90;;;;;;5030060;28;20488;-78
2022/06/17 07:15:10;;;;;;;1.47;0.90;;;23.20;76.80;;;;;;5043393;28;20461;-78
2022/06/17 07:17:37;;;;;;;1.47;0.80;;;23.30;76.30;;;;;;5030589;28;20483;-79
2022/06/17 07:20:04;;;;;;;1.47;0.90;;;23.40;76.00;;;;;;5040676;28;20513;-78
2022/06/17 07:22:31;;;;;;;1.47;0.90;;;23.70;76.00;;;;;;5037005;28;20570;-78
2022/06/17 07:24:58;;;;;;;1.43;0.90;;;24.00;75.70;;;;;;5041661;28;20585;-78
2022/06/17 07:27:25;;;;;;;1.50;0.80;;;24.10;75.10;;;;;;5032605;28;20558;-78
2022/06/17 07:29:52;;;;;;;1.50;0.90;;;24.30;74.90;;;;;;5038669;28;20566;-77
2022/06/17 07:32:20;;;;;;;1.43;0.80;;;24.70;74.20;;;;;;5032324;28;20496;-78
2022/06/17 07:34:47;;;;;;;1.50;1.00;;;24.80;73.50;;;;;;5033005;28;20562;-78
2022/06/17 07:40:04;;;;;;;1.47;0.90;;;25.10;72.70;;;;;;5046737;28;20625;-78
2022/06/17 07:42:37;;;;;;;1.50;0.90;;;25.30;72.70;;;;;;5032903;28;20482;-78
2022/06/17 07:45:07;;;;;;;1.47;0.87;;;25.30;71.00;;;;;;5034654;28;20501;-78
2022/06/17 07:47:36;;;;;;;1.47;0.90;;;25.50;71.80;;;;;;5038871;28;20486;-79
2022/06/17 07:50:06;;;;;;;1.50;1.00;;;25.40;70.90;;;;;;5042981;28;20482;-77
2022/06/17 07:52:32;;;;;;;4.13;3.03;;;25.60;71.60;;;;;;5038779;28;20508;-78
2022/06/17 07:54:59;;;;;;;1.43;0.83;;;25.90;70.60;;;;;;5038418;28;21022;-78
2022/06/17 07:57:26;;;;;;;1.50;1.10;;;26.10;70.50;;;;;;5026706;28;20490;-78
2022/06/17 07:59:53;;;;;;;1.60;1.23;;;26.30;70.00;;;;;;5035632;28;20574;-78
2022/06/17 08:02:20;;;;;;;1.50;0.80;;;26.80;68.90;;;;;;5037774;28;20490;-78
2022/06/17 08:04:48;;;;;;;1.50;0.90;;;27.20;68.20;;;;;;5030781;28;20578;-78
2022/06/17 08:07:15;;;;;;;1.43;0.83;;;27.50;66.80;;;;;;5024658;28;20505;-78
2022/06/17 08:09:42;;;;;;;1.50;0.80;;;27.70;66.70;;;;;;5037118;28;20581;-78
2022/06/17 08:12:13;;;;;;;1.50;0.80;;;27.90;66.20;;;;;;5031270;28;20463;-79
2022/06/17 08:14:43;;;;;;;1.43;0.90;;;27.70;66.30;;;;;;5030094;28;20656;-78
2022/06/17 08:17:12;;;;;;;1.47;0.80;;;27.70;66.20;;;;;;5031340;28;20561;-77
2022/06/17 08:19:39;;;;;;;1.50;0.80;;;27.60;66.20;;;;;;5038908;28;20496;-77
2022/06/17 08:22:09;;;;;;;1.50;0.80;;;27.90;65.60;;;;;;5036019;28;20486;-76
2022/06/17 08:24:36;;;;;;;1.40;0.80;;;28.20;64.60;;;;;;5034116;28;20487;-77
2022/06/17 08:27:04;;;;;;;1.67;0.90;;;28.60;63.90;;;;;;5027592;28;20541;-77
2022/06/17 08:29:31;;;;;;;1.47;0.83;;;28.90;64.20;;;;;;5043108;28;20459;-77
2022/06/17 08:32:45;;;;;;;1.47;0.87;;;29.10;62.40;;;;;;5038690;28;20490;-77
2022/06/17 08:34:46;;;;;;;1.40;0.87;;;29.10;62.20;;;;;;5038226;28;20533;-78
2022/06/17 08:37:16;;;;;;;1.40;0.80;;;28.80;61.90;;;;;;5037567;28;20529;-77
2022/06/17 08:39:46;;;;;;;1.47;0.90;;;28.30;63.10;;;;;;5027689;28;20485;-78
2022/06/17 08:42:25;;;;;;;1.40;0.80;;;28.40;63.50;;;;;;5024410;28;20490;-78
2022/06/17 08:44:59;;;;;;;1.40;0.80;;;28.70;62.60;;;;;;5039723;28;20600;-78
2022/06/17 08:47:41;;;;;;;1.40;0.80;;;28.90;61.20;;;;;;5024968;28;20524;-76
2022/06/17 08:50:49;;;;;;;1.40;0.80;;;28.70;61.00;;;;;;5029909;28;20548;-77
2022/06/17 08:53:37;;;;;;;1.40;0.80;;;28.40;61.80;;;;;;4970709;28;20491;-77
2022/06/17 08:56:13;;;;;;;1.40;0.80;;;27.90;61.30;;;;;;5023719;28;20495;-77
2022/06/17 08:58:51;;;;;;;1.47;0.80;;;27.60;61.80;;;;;;5035029;28;20962;-77
2022/06/17 09:01:27;;;;;;;1.40;0.80;;;27.40;62.30;;;;;;5028651;28;20553;-76
2022/06/17 09:04:15;;;;;;;1.43;0.80;;;27.00;63.50;;;;;;5032836;28;20466;-77
2022/06/17 09:06:55;;;;;;;1.50;1.00;;;27.10;64.30;;;;;;5030889;28;20554;-77
2022/06/17 09:09:42;;;;;;;1.50;0.83;;;27.00;63.30;;;;;;5039909;28;20508;-76
2022/06/17 09:12:17;;;;;;;1.60;1.13;;;27.10;63.10;;;;;;5029176;28;20482;-77
2022/06/17 09:14:55;;;;;;;1.40;0.80;;;27.20;63.80;;;;;;5036596;28;20466;-76
2022/06/17 09:17:42;;;;;;;1.40;0.80;;;27.60;64.20;;;;;;5028294;28;20913;-77
2022/06/17 09:20:14;;;;;;;1.43;0.80;;;28.10;62.30;;;;;;5034304;28;20482;-77
2022/06/17 09:22:46;;;;;;;1.43;0.80;;;28.40;62.40;;;;;;5021118;28;20490;-77
2022/06/17 09:25:20;;;;;;;1.47;0.80;;;28.60;61.10;;;;;;5029810;28;20493;-77
2022/06/17 09:27:51;;;;;;;1.40;0.80;;;28.60;60.40;;;;;;5020512;28;20486;-76
2022/06/17 09:30:20;;;;;;;1.40;0.80;;;28.60;61.10;;;;;;5026338;28;20490;-77
2022/06/17 09:32:53;;;;;;;1.43;0.80;;;28.50;60.10;;;;;;5020261;28;20519;-75
2022/06/17 09:35:26;;;;;;;1.43;0.80;;;28.90;61.30;;;;;;5027674;28;20467;-77
2022/06/17 09:37:58;;;;;;;1.40;0.80;;;29.00;59.80;;;;;;5028658;28;20484;-75
2022/06/17 09:40:36;;;;;;;1.40;0.80;;;29.00;59.50;;;;;;5028869;28;20549;-76
2022/06/17 09:43:09;;;;;;;1.50;1.07;;;29.10;59.20;;;;;;5036184;28;20795;-76
2022/06/17 09:45:41;;;;;;;1.47;0.80;;;29.30;59.80;;;;;;5024931;28;20514;-76
2022/06/17 09:48:14;;;;;;;1.40;0.90;;;29.60;60.20;;;;;;5020272;28;20526;-76
2022/06/17 09:50:47;;;;;;;1.50;0.80;;;30.10;59.90;;;;;;5023782;28;20493;-77
2022/06/17 09:53:22;;;;;;;1.40;0.80;;;30.40;58.10;;;;;;5027045;28;20466;-77
2022/06/17 09:55:56;;;;;;;1.47;0.80;;;30.30;58.60;;;;;;5027845;28;20549;-75
2022/06/17 09:58:29;;;;;;;1.47;0.90;;;30.60;58.30;;;;;;5042023;28;20473;-76
2022/06/17 10:00:58;;;;;;;1.40;0.80;;;30.50;58.10;;;;;;5027847;28;20522;-75
2022/06/17 10:03:28;;;;;;;1.43;0.80;;;30.60;57.80;;;;;;5031488;28;20918;-76
2022/06/17 10:06:05;;;;;;;1.40;0.80;;;30.60;58.30;;;;;;5043843;28;20486;-75
2022/06/17 10:08:42;;;;;;;1.40;0.80;;;30.70;57.20;;;;;;5038963;28;20470;-77
2022/06/17 10:11:16;;;;;;;1.43;0.80;;;30.60;56.80;;;;;;5029444;28;20485;-75
2022/06/17 10:13:53;;;;;;;1.50;1.00;;;30.50;57.30;;;;;;5028500;28;20470;-76
2022/06/17 10:19:26;;;;;;;1.40;0.80;;;30.30;56.70;;;;;;5032787;28;20933;-77
2022/06/17 10:22:06;;;;;;;1.43;0.80;;;30.50;56.50;;;;;;5016797;28;20709;-74
2022/06/17 10:24:47;;;;;;;1.43;0.90;;;30.70;56.50;;;;;;5029425;28;20462;-76
2022/06/17 10:27:27;;;;;;;1.40;0.80;;;30.70;56.20;;;;;;5022196;28;20470;-78
2022/06/17 10:30:03;;;;;;;1.40;0.80;;;30.80;56.50;;;;;;5035305;28;20493;-76
2022/06/17 10:32:33;;;;;;;1.43;0.80;;;30.80;56.00;;;;;;5029434;28;20474;-76
2022/06/17 10:35:03;;;;;;;1.47;0.80;;;30.70;55.90;;;;;;5034823;28;20464;-75
2022/06/17 10:37:33;;;;;;;1.40;0.80;;;31.00;55.70;;;;;;5040237;28;20454;-75
2022/06/17 10:40:05;;;;;;;1.47;0.80;;;31.10;56.10;;;;;;5034097;28;21179;-76
2022/06/17 10:42:35;;;;;;;1.50;1.00;;;31.10;55.70;;;;;;5041175;28;20503;-75
2022/06/17 10:45:03;;;;;;;1.47;0.80;;;31.30;55.90;;;;;;5036125;28;20466;-75
2022/06/17 10:47:38;;;;;;;1.40;0.80;;;31.50;54.70;;;;;;5037451;28;20461;-76
2022/06/17 10:50:14;;;;;;;1.47;0.80;;;31.60;55.60;;;;;;5035068;28;20784;-76
2022/06/17 10:52:57;;;;;;;1.43;0.80;;;32.00;54.50;;;;;;5033760;28;20214;-75
2022/06/17 10:55:28;;;;;;;1.47;0.80;;;32.20;54.00;;;;;;5042558;28;20226;-77
2022/06/17 10:58:11;;;;;;;1.47;0.80;;;32.60;52.50;;;;;;5026695;28;20245;-76
2022/06/17 11:01:20;;;;;;;1.40;0.80;;;32.90;53.60;;;;;;5046430;28;20228;-78
2022/06/17 11:03:48;;;;;;;1.47;0.80;;;33.10;51.60;;;;;;5023052;28;20242;-78
2022/06/17 11:06:22;;;;;;;1.47;0.80;;;33.40;51.30;;;;;;5033436;28;20207;-77
2022/06/17 11:09:05;;;;;;;1.77;1.17;;;33.50;50.50;;;;;;4199578;22;20224;-76
2022/06/17 11:14:24;;;;;;;1.40;0.80;;;34.00;50.40;;;;;;5027609;28;20206;-76
2022/06/17 11:16:51;;;;;;;1.45;0.80;;;34.10;50.40;;;;;;5021390;28;20263;-75
2022/06/17 11:19:25;;;;;;;1.43;0.80;;;34.00;50.10;;;;;;5022179;28;20282;-76
2022/06/17 11:21:57;;;;;;;1.40;0.80;;;34.10;48.70;;;;;;5009642;28;20252;-76
2022/06/17 11:24:28;;;;;;;1.47;1.00;;;34.10;49.00;;;;;;5021377;28;20209;-75
2022/06/17 11:27:08;;;;;;;1.40;0.80;;;34.10;48.30;;;;;;5008873;28;20200;-75
2022/06/17 11:29:40;;;;;;;1.40;0.80;;;34.10;49.20;;;;;;5003418;28;20204;-75
2022/06/17 11:32:29;;;;;;;1.40;0.80;;;34.30;49.10;;;;;;4991385;28;20224;-75
2022/06/17 11:34:58;;;;;;;1.40;0.80;;;34.30;46.70;;;;;;5004670;28;20227;-75
2022/06/17 11:37:27;;;;;;;1.40;0.80;;;34.20;47.90;;;;;;5000236;28;20232;-75
2022/06/17 11:40:16;;;;;;;1.40;0.80;;;34.00;48.50;;;;;;5003225;28;20214;-75
2022/06/17 11:42:51;;;;;;;1.50;1.10;;;33.50;50.00;;;;;;4988573;28;20236;-77
2022/06/17 11:45:23;;;;;;;1.40;0.80;;;33.70;49.50;;;;;;4999065;28;20215;-76
2022/06/17 11:47:57;;;;;;;1.40;0.80;;;33.80;49.30;;;;;;4998497;28;20340;-76
2022/06/17 11:50:30;;;;;;;1.40;0.80;;;33.90;49.10;;;;;;5005515;28;20586;-75
2022/06/17 11:53:08;;;;;;;1.40;0.80;;;33.40;49.60;;;;;;4996555;28;20208;-77
2022/06/17 11:55:42;;;;;;;1.40;0.80;;;33.30;50.10;;;;;;5001406;28;20229;-79
2022/06/17 11:58:11;;;;;;;1.40;0.80;;;33.60;49.50;;;;;;4997023;28;20315;-79
2022/06/17 12:00:47;;;;;;;1.40;0.80;;;33.70;49.30;;;;;;4997313;28;20242;-77
2022/06/17 12:03:18;;;;;;;1.40;0.80;;;33.80;50.20;;;;;;4987088;28;20728;-77
2022/06/17 12:05:57;;;;;;;1.40;0.80;;;34.10;50.10;;;;;;5005842;28;20309;-79
2022/06/17 12:08:29;;;;;;;1.40;0.80;;;34.30;48.90;;;;;;4988259;28;20274;-79
2022/06/17 12:11:01;;;;;;;1.40;0.80;;;34.30;49.20;;;;;;4989008;28;20214;-76
2022/06/17 12:13:34;;;;;;;1.40;0.80;;;34.60;49.80;;;;;;5009546;28;20756;-77
2022/06/17 12:16:09;;;;;;;1.50;1.13;;;34.30;49.70;;;;;;4994413;28;20232;-77
2022/06/17 12:18:38;;;;;;;1.40;0.80;;;34.50;50.50;;;;;;4998648;28;20783;-75
2022/06/17 12:21:18;;;;;;;1.40;0.80;;;34.50;50.10;;;;;;4992832;28;20220;-76
2022/06/17 12:23:49;;;;;;;1.40;0.80;;;34.50;49.10;;;;;;5006048;28;20209;-77
2022/06/17 12:26:20;;;;;;;1.40;0.80;;;34.30;49.30;;;;;;5002809;28;20212;-76
2022/06/17 12:28:59;;;;;;;1.58;1.27;;;34.30;49.90;;;;;;5001039;28;20233;-75
2022/06/17 12:31:39;;;;;;;1.40;0.80;;;34.20;48.60;;;;;;4991192;28;20651;-79
2022/06/17 12:34:14;;;;;;;1.40;0.80;;;34.50;49.80;;;;;;5000339;28;20580;-76
2022/06/17 12:36:46;;;;;;;1.40;0.80;;;34.70;49.80;;;;;;4999156;28;20320;-78
2022/06/17 12:39:21;;;;;;;1.40;0.80;;;34.60;49.50;;;;;;5001396;28;20226;-76
2022/06/17 12:41:56;;;;;;;1.40;0.80;;;34.60;50.20;;;;;;4988708;28;20244;-75
2022/06/17 12:44:46;;;;;;;1.40;0.80;;;34.80;50.00;;;;;;4995408;28;20209;-74
2022/06/17 12:47:19;;;;;;;1.40;0.80;;;35.10;49.40;;;;;;4989376;28;20227;-77
2022/06/17 12:55:49;;;;;;;1.40;0.80;;;35.10;48.80;;;;;;5002348;28;20314;-76
2022/06/17 12:58:27;;;;;;;1.40;0.80;;;34.90;49.10;;;;;;4996381;28;20512;-79
2022/06/17 13:00:59;;;;;;;1.40;0.80;;;34.90;49.10;;;;;;4990366;28;20245;-79
2022/06/17 13:03:58;;;;;;;1.40;0.80;;;35.10;49.30;;;;;;5006724;28;20309;-75
2022/06/17 13:06:40;;;;;;;1.40;0.80;;;35.20;50.10;;;;;;4984422;28;20224;-79
2022/06/17 13:09:15;;;;;;;1.40;0.80;;;35.20;49.40;;;;;;5000014;28;20264;-76
2022/06/17 13:11:49;;;;;;;1.40;0.80;;;35.40;48.40;;;;;;4992290;28;20319;-77
2022/06/17 13:14:25;;;;;;;1.40;0.80;;;35.60;48.40;;;;;;5004066;28;20209;-75
2022/06/17 13:16:59;;;;;;;1.38;0.80;;;35.40;48.10;;;;;;4999478;28;20216;-80
2022/06/17 13:19:34;;;;;;;1.40;0.80;;;35.60;49.10;;;;;;4991227;28;20210;-76
2022/06/17 13:22:08;;;;;;;1.40;0.80;;;35.90;49.30;;;;;;4992374;28;20212;-77
2022/06/17 13:24:40;;;;;;;1.40;0.80;;;36.10;48.00;;;;;;4999441;28;20223;-80
2022/06/17 13:27:15;;;;;;;1.40;0.80;;;36.20;47.50;;;;;;4989995;28;20228;-78
2022/06/17 13:29:50;;;;;;;1.40;0.80;;;36.40;47.80;;;;;;4999205;28;20241;-77